sensor_id;sensor_type;location;lat;lon;timestamp;P1;durP1;ratioP1;P2;durP2;ratioP2
78877;SDS011;68257;43.514;1.498;2024-01-16T00:01:14;5.50;;;2.20;;
78877;SDS011;68257;43.514;1.498;2024-01-16T00:03:41;4.00;;;2.10;;
78877;SDS011;68257;43.514;1.498;2024-01-16T00:06:07;3.60;;;2.03;;
78877;SDS011;68257;43.514;1.498;2024-01-16T00:08:32;6.80;;;2.83;;
78877;SDS011;68257;43.514;1.498;2024-01-16T00:10:58;6.27;;;3.10;;
78877;SDS011;68257;43.514;1.498;2024-01-16T00:13:23;9.77;;;3.33;;
78877;SDS011;68257;43.514;1.498;2024-01-16T00:15:49;8.67;;;3.53;;
78877;SDS011;68257;43.514;1.498;2024-01-16T00:18:14;9.30;;;4.00;;
78877;SDS011;68257;43.514;1.498;2024-01-16T00:20:40;7.20;;;3.07;;
78877;SDS011;68257;43.514;1.498;2024-01-16T00:23:05;8.60;;;3.60;;
78877;SDS011;68257;43.514;1.498;2024-01-16T00:25:31;8.83;;;4.33;;
78877;SDS011;68257;43.514;1.498;2024-01-16T00:27:56;10.43;;;4.68;;
78877;SDS011;68257;43.514;1.498;2024-01-16T00:30:21;10.00;;;4.47;;
78877;SDS011;68257;43.514;1.498;2024-01-16T00:32:47;7.73;;;4.27;;
78877;SDS011;68257;43.514;1.498;2024-01-16T00:35:12;8.33;;;3.90;;
78877;SDS011;68257;43.514;1.498;2024-01-16T00:37:37;8.93;;;4.07;;
78877;SDS011;68257;43.514;1.498;2024-01-16T00:40:03;6.03;;;3.30;;
78877;SDS011;68257;43.514;1.498;2024-01-16T00:42:29;5.37;;;3.07;;
78877;SDS011;68257;43.514;1.498;2024-01-16T00:44:58;6.85;;;3.60;;
78877;SDS011;68257;43.514;1.498;2024-01-16T00:47:23;9.80;;;3.00;;
78877;SDS011;68257;43.514;1.498;2024-01-16T00:49:49;5.38;;;2.65;;
78877;SDS011;68257;43.514;1.498;2024-01-16T00:52:15;4.22;;;2.28;;
78877;SDS011;68257;43.514;1.498;2024-01-16T00:54:40;4.80;;;2.80;;
78877;SDS011;68257;43.514;1.498;2024-01-16T00:57:06;4.33;;;2.20;;
78877;SDS011;68257;43.514;1.498;2024-01-16T00:59:32;4.10;;;2.38;;
78877;SDS011;68257;43.514;1.498;2024-01-16T01:01:57;4.63;;;2.53;;
78877;SDS011;68257;43.514;1.498;2024-01-16T01:04:23;5.17;;;2.80;;
78877;SDS011;68257;43.514;1.498;2024-01-16T01:06:48;5.07;;;2.67;;
78877;SDS011;68257;43.514;1.498;2024-01-16T01:09:14;4.70;;;2.63;;
78877;SDS011;68257;43.514;1.498;2024-01-16T01:11:39;3.90;;;2.50;;
78877;SDS011;68257;43.514;1.498;2024-01-16T01:14:04;4.03;;;2.60;;
78877;SDS011;68257;43.514;1.498;2024-01-16T01:16:30;3.80;;;2.40;;
78877;SDS011;68257;43.514;1.498;2024-01-16T01:18:56;4.50;;;2.20;;
78877;SDS011;68257;43.514;1.498;2024-01-16T01:21:21;4.57;;;2.30;;
78877;SDS011;68257;43.514;1.498;2024-01-16T01:23:47;4.67;;;2.40;;
78877;SDS011;68257;43.514;1.498;2024-01-16T01:26:12;3.72;;;2.45;;
78877;SDS011;68257;43.514;1.498;2024-01-16T01:28:42;3.60;;;2.30;;
78877;SDS011;68257;43.514;1.498;2024-01-16T01:31:08;4.30;;;2.42;;
78877;SDS011;68257;43.514;1.498;2024-01-16T01:33:35;4.57;;;2.30;;
78877;SDS011;68257;43.514;1.498;2024-01-16T01:36:00;4.88;;;2.33;;
78877;SDS011;68257;43.514;1.498;2024-01-16T01:38:26;3.17;;;1.90;;
78877;SDS011;68257;43.514;1.498;2024-01-16T01:40:51;5.50;;;2.30;;
78877;SDS011;68257;43.514;1.498;2024-01-16T01:43:26;3.50;;;2.20;;
78877;SDS011;68257;43.514;1.498;2024-01-16T01:48:42;4.07;;;2.10;;
78877;SDS011;68257;43.514;1.498;2024-01-16T01:51:09;4.57;;;2.30;;
78877;SDS011;68257;43.514;1.498;2024-01-16T01:53:35;4.67;;;2.50;;
78877;SDS011;68257;43.514;1.498;2024-01-16T01:56:02;3.70;;;2.15;;
78877;SDS011;68257;43.514;1.498;2024-01-16T01:58:30;4.95;;;3.20;;
78877;SDS011;68257;43.514;1.498;2024-01-16T02:00:56;3.93;;;2.40;;
78877;SDS011;68257;43.514;1.498;2024-01-16T02:03:21;6.38;;;2.67;;
78877;SDS011;68257;43.514;1.498;2024-01-16T02:05:48;6.20;;;2.45;;
78877;SDS011;68257;43.514;1.498;2024-01-16T02:08:15;6.40;;;2.50;;
78877;SDS011;68257;43.514;1.498;2024-01-16T02:10:41;4.78;;;3.05;;
78877;SDS011;68257;43.514;1.498;2024-01-16T02:13:08;4.63;;;2.30;;
78877;SDS011;68257;43.514;1.498;2024-01-16T02:15:33;4.88;;;2.60;;
78877;SDS011;68257;43.514;1.498;2024-01-16T02:17:58;4.22;;;2.60;;
78877;SDS011;68257;43.514;1.498;2024-01-16T02:20:24;5.43;;;2.60;;
78877;SDS011;68257;43.514;1.498;2024-01-16T02:22:49;6.17;;;3.37;;
78877;SDS011;68257;43.514;1.498;2024-01-16T02:25:17;10.95;;;4.63;;
78877;SDS011;68257;43.514;1.498;2024-01-16T02:27:42;8.77;;;4.37;;
78877;SDS011;68257;43.514;1.498;2024-01-16T02:30:08;6.67;;;3.83;;
78877;SDS011;68257;43.514;1.498;2024-01-16T02:32:33;7.27;;;3.50;;
78877;SDS011;68257;43.514;1.498;2024-01-16T02:34:58;5.67;;;2.97;;
78877;SDS011;68257;43.514;1.498;2024-01-16T02:37:24;7.83;;;2.80;;
78877;SDS011;68257;43.514;1.498;2024-01-16T02:39:49;4.65;;;2.67;;
78877;SDS011;68257;43.514;1.498;2024-01-16T02:42:15;6.30;;;2.70;;
78877;SDS011;68257;43.514;1.498;2024-01-16T02:44:40;4.10;;;2.40;;
78877;SDS011;68257;43.514;1.498;2024-01-16T02:47:06;5.55;;;2.67;;
78877;SDS011;68257;43.514;1.498;2024-01-16T02:49:32;4.83;;;2.73;;
78877;SDS011;68257;43.514;1.498;2024-01-16T02:51:58;5.85;;;2.70;;
78877;SDS011;68257;43.514;1.498;2024-01-16T02:54:23;4.80;;;2.77;;
78877;SDS011;68257;43.514;1.498;2024-01-16T02:56:49;5.10;;;2.73;;
78877;SDS011;68257;43.514;1.498;2024-01-16T02:59:14;5.13;;;2.80;;
78877;SDS011;68257;43.514;1.498;2024-01-16T03:01:40;4.63;;;2.67;;
78877;SDS011;68257;43.514;1.498;2024-01-16T03:04:06;5.43;;;2.75;;
78877;SDS011;68257;43.514;1.498;2024-01-16T03:06:31;7.37;;;3.63;;
78877;SDS011;68257;43.514;1.498;2024-01-16T03:08:56;6.77;;;3.57;;
78877;SDS011;68257;43.514;1.498;2024-01-16T03:11:22;8.97;;;4.90;;
78877;SDS011;68257;43.514;1.498;2024-01-16T03:13:47;10.37;;;4.60;;
78877;SDS011;68257;43.514;1.498;2024-01-16T03:16:14;6.05;;;3.78;;
78877;SDS011;68257;43.514;1.498;2024-01-16T03:18:40;6.00;;;3.35;;
78877;SDS011;68257;43.514;1.498;2024-01-16T03:21:06;5.20;;;3.10;;
78877;SDS011;68257;43.514;1.498;2024-01-16T03:23:31;6.00;;;3.10;;
78877;SDS011;68257;43.514;1.498;2024-01-16T03:25:57;4.90;;;2.83;;
78877;SDS011;68257;43.514;1.498;2024-01-16T03:28:22;5.87;;;2.80;;
78877;SDS011;68257;43.514;1.498;2024-01-16T03:30:48;5.23;;;2.83;;
78877;SDS011;68257;43.514;1.498;2024-01-16T03:33:13;5.03;;;3.00;;
78877;SDS011;68257;43.514;1.498;2024-01-16T03:35:39;4.47;;;2.70;;
78877;SDS011;68257;43.514;1.498;2024-01-16T03:38:04;6.20;;;3.03;;
78877;SDS011;68257;43.514;1.498;2024-01-16T03:40:29;5.10;;;3.07;;
78877;SDS011;68257;43.514;1.498;2024-01-16T03:42:59;4.60;;;2.88;;
78877;SDS011;68257;43.514;1.498;2024-01-16T03:45:25;6.30;;;3.10;;
78877;SDS011;68257;43.514;1.498;2024-01-16T03:47:50;5.10;;;3.20;;
78877;SDS011;68257;43.514;1.498;2024-01-16T03:50:15;5.13;;;3.30;;
78877;SDS011;68257;43.514;1.498;2024-01-16T03:52:41;5.13;;;3.10;;
78877;SDS011;68257;43.514;1.498;2024-01-16T03:55:06;6.17;;;3.23;;
78877;SDS011;68257;43.514;1.498;2024-01-16T03:57:32;4.60;;;3.03;;
78877;SDS011;68257;43.514;1.498;2024-01-16T03:59:59;4.57;;;3.10;;
78877;SDS011;68257;43.514;1.498;2024-01-16T04:02:24;5.23;;;3.07;;
78877;SDS011;68257;43.514;1.498;2024-01-16T04:04:50;4.60;;;3.10;;
78877;SDS011;68257;43.514;1.498;2024-01-16T04:07:15;5.10;;;3.00;;
78877;SDS011;68257;43.514;1.498;2024-01-16T04:09:42;4.15;;;2.80;;
78877;SDS011;68257;43.514;1.498;2024-01-16T04:12:08;4.80;;;2.90;;
78877;SDS011;68257;43.514;1.498;2024-01-16T04:14:33;5.15;;;3.40;;
78877;SDS011;68257;43.514;1.498;2024-01-16T04:16:59;4.70;;;3.13;;
78877;SDS011;68257;43.514;1.498;2024-01-16T04:19:24;7.15;;;3.50;;
78877;SDS011;68257;43.514;1.498;2024-01-16T04:21:50;4.68;;;3.10;;
78877;SDS011;68257;43.514;1.498;2024-01-16T04:24:15;6.03;;;3.20;;
78877;SDS011;68257;43.514;1.498;2024-01-16T04:26:41;5.53;;;3.20;;
78877;SDS011;68257;43.514;1.498;2024-01-16T04:29:06;5.43;;;3.33;;
78877;SDS011;68257;43.514;1.498;2024-01-16T04:31:33;6.50;;;3.40;;
78877;SDS011;68257;43.514;1.498;2024-01-16T04:34:04;5.18;;;3.30;;
78877;SDS011;68257;43.514;1.498;2024-01-16T04:36:29;5.07;;;3.43;;
78877;SDS011;68257;43.514;1.498;2024-01-16T04:38:54;6.03;;;3.53;;
78877;SDS011;68257;43.514;1.498;2024-01-16T04:41:20;6.10;;;3.75;;
78877;SDS011;68257;43.514;1.498;2024-01-16T04:43:45;7.78;;;3.60;;
78877;SDS011;68257;43.514;1.498;2024-01-16T04:46:11;6.80;;;3.83;;
78877;SDS011;68257;43.514;1.498;2024-01-16T04:48:36;5.93;;;3.70;;
78877;SDS011;68257;43.514;1.498;2024-01-16T04:51:01;5.30;;;3.80;;
78877;SDS011;68257;43.514;1.498;2024-01-16T04:53:27;4.77;;;3.40;;
78877;SDS011;68257;43.514;1.498;2024-01-16T04:55:52;5.13;;;3.47;;
78877;SDS011;68257;43.514;1.498;2024-01-16T04:58:17;6.17;;;3.60;;
78877;SDS011;68257;43.514;1.498;2024-01-16T05:00:43;7.50;;;4.00;;
78877;SDS011;68257;43.514;1.498;2024-01-16T05:03:09;6.27;;;3.60;;
78877;SDS011;68257;43.514;1.498;2024-01-16T05:05:34;7.35;;;4.00;;
78877;SDS011;68257;43.514;1.498;2024-01-16T05:08:03;5.95;;;3.53;;
78877;SDS011;68257;43.514;1.498;2024-01-16T05:10:28;5.20;;;3.43;;
78877;SDS011;68257;43.514;1.498;2024-01-16T05:12:53;6.35;;;3.13;;
78877;SDS011;68257;43.514;1.498;2024-01-16T05:15:19;4.00;;;2.80;;
78877;SDS011;68257;43.514;1.498;2024-01-16T05:17:45;5.33;;;3.00;;
78877;SDS011;68257;43.514;1.498;2024-01-16T05:20:10;4.88;;;2.78;;
78877;SDS011;68257;43.514;1.498;2024-01-16T05:22:36;4.70;;;2.85;;
78877;SDS011;68257;43.514;1.498;2024-01-16T05:25:03;4.15;;;2.60;;
78877;SDS011;68257;43.514;1.498;2024-01-16T05:27:29;5.90;;;2.60;;
78877;SDS011;68257;43.514;1.498;2024-01-16T05:29:55;5.75;;;2.95;;
78877;SDS011;68257;43.514;1.498;2024-01-16T05:32:20;7.30;;;6.20;;
78877;SDS011;68257;43.514;1.498;2024-01-16T05:34:46;4.50;;;2.53;;
78877;SDS011;68257;43.514;1.498;2024-01-16T05:37:11;4.10;;;2.50;;
78877;SDS011;68257;43.514;1.498;2024-01-16T05:39:36;6.15;;;5.60;;
78877;SDS011;68257;43.514;1.498;2024-01-16T05:42:02;12.00;;;10.90;;
78877;SDS011;68257;43.514;1.498;2024-01-16T05:44:28;3.90;;;2.30;;
78877;SDS011;68257;43.514;1.498;2024-01-16T05:46:53;6.07;;;3.00;;
78877;SDS011;68257;43.514;1.498;2024-01-16T05:49:18;3.78;;;1.90;;
78877;SDS011;68257;43.514;1.498;2024-01-16T05:51:44;3.60;;;2.00;;
78877;SDS011;68257;43.514;1.498;2024-01-16T05:54:09;5.17;;;1.77;;
78877;SDS011;68257;43.514;1.498;2024-01-16T05:56:34;3.10;;;1.57;;
78877;SDS011;68257;43.514;1.498;2024-01-16T05:59:00;3.23;;;1.83;;
78877;SDS011;68257;43.514;1.498;2024-01-16T06:01:25;3.10;;;1.60;;
78877;SDS011;68257;43.514;1.498;2024-01-16T06:03:52;4.03;;;1.60;;
78877;SDS011;68257;43.514;1.498;2024-01-16T06:06:17;3.47;;;1.83;;
78877;SDS011;68257;43.514;1.498;2024-01-16T06:08:44;2.80;;;1.40;;
78877;SDS011;68257;43.514;1.498;2024-01-16T06:11:10;4.00;;;1.90;;
78877;SDS011;68257;43.514;1.498;2024-01-16T06:13:36;2.80;;;1.20;;
78877;SDS011;68257;43.514;1.498;2024-01-16T06:16:01;2.85;;;1.50;;
78877;SDS011;68257;43.514;1.498;2024-01-16T06:18:28;2.97;;;1.30;;
78877;SDS011;68257;43.514;1.498;2024-01-16T06:20:53;4.20;;;3.67;;
78877;SDS011;68257;43.514;1.498;2024-01-16T06:23:18;3.27;;;1.20;;
78877;SDS011;68257;43.514;1.498;2024-01-16T06:25:44;3.97;;;1.00;;
78877;SDS011;68257;43.514;1.498;2024-01-16T06:28:09;4.00;;;1.77;;
78877;SDS011;68257;43.514;1.498;2024-01-16T06:30:34;5.17;;;2.67;;
78877;SDS011;68257;43.514;1.498;2024-01-16T06:33:00;3.47;;;1.63;;
78877;SDS011;68257;43.514;1.498;2024-01-16T06:35:25;4.80;;;4.05;;
78877;SDS011;68257;43.514;1.498;2024-01-16T06:37:51;2.97;;;1.33;;
78877;SDS011;68257;43.514;1.498;2024-01-16T06:40:16;4.23;;;1.10;;
78877;SDS011;68257;43.514;1.498;2024-01-16T06:42:41;3.53;;;1.20;;
78877;SDS011;68257;43.514;1.498;2024-01-16T06:45:07;2.80;;;0.70;;
78877;SDS011;68257;43.514;1.498;2024-01-16T06:47:32;2.95;;;1.00;;
78877;SDS011;68257;43.514;1.498;2024-01-16T06:49:58;3.28;;;1.25;;
78877;SDS011;68257;43.514;1.498;2024-01-16T06:52:23;2.33;;;0.90;;
78877;SDS011;68257;43.514;1.498;2024-01-16T06:54:49;3.88;;;1.42;;
78877;SDS011;68257;43.514;1.498;2024-01-16T06:57:15;4.07;;;1.17;;
78877;SDS011;68257;43.514;1.498;2024-01-16T06:59:40;3.00;;;0.87;;
78877;SDS011;68257;43.514;1.498;2024-01-16T07:02:06;4.28;;;3.63;;
78877;SDS011;68257;43.514;1.498;2024-01-16T07:04:31;2.70;;;1.07;;
78877;SDS011;68257;43.514;1.498;2024-01-16T07:06:57;6.18;;;2.83;;
78877;SDS011;68257;43.514;1.498;2024-01-16T07:09:24;2.40;;;1.10;;
78877;SDS011;68257;43.514;1.498;2024-01-16T07:11:50;2.70;;;1.30;;
78877;SDS011;68257;43.514;1.498;2024-01-16T07:14:15;2.90;;;0.90;;
78877;SDS011;68257;43.514;1.498;2024-01-16T07:16:41;3.47;;;1.10;;
78877;SDS011;68257;43.514;1.498;2024-01-16T07:19:06;2.17;;;0.80;;
78877;SDS011;68257;43.514;1.498;2024-01-16T07:21:31;2.77;;;0.80;;
78877;SDS011;68257;43.514;1.498;2024-01-16T07:23:58;3.30;;;1.27;;
78877;SDS011;68257;43.514;1.498;2024-01-16T07:26:23;4.78;;;3.67;;
78877;SDS011;68257;43.514;1.498;2024-01-16T07:28:49;4.13;;;2.60;;
78877;SDS011;68257;43.514;1.498;2024-01-16T07:31:15;4.60;;;1.30;;
78877;SDS011;68257;43.514;1.498;2024-01-16T07:33:41;3.55;;;1.10;;
78877;SDS011;68257;43.514;1.498;2024-01-16T07:36:07;3.28;;;1.60;;
78877;SDS011;68257;43.514;1.498;2024-01-16T07:38:33;4.10;;;1.23;;
78877;SDS011;68257;43.514;1.498;2024-01-16T07:40:59;3.40;;;1.70;;
78877;SDS011;68257;43.514;1.498;2024-01-16T07:43:24;3.80;;;1.20;;
78877;SDS011;68257;43.514;1.498;2024-01-16T07:45:50;3.58;;;1.00;;
78877;SDS011;68257;43.514;1.498;2024-01-16T07:48:15;2.40;;;1.10;;
78877;SDS011;68257;43.514;1.498;2024-01-16T07:50:41;4.50;;;1.30;;
78877;SDS011;68257;43.514;1.498;2024-01-16T07:53:06;3.07;;;1.20;;
78877;SDS011;68257;43.514;1.498;2024-01-16T07:55:31;3.93;;;1.13;;
78877;SDS011;68257;43.514;1.498;2024-01-16T07:57:57;2.67;;;1.10;;
78877;SDS011;68257;43.514;1.498;2024-01-16T08:00:22;4.80;;;1.15;;
78877;SDS011;68257;43.514;1.498;2024-01-16T08:02:48;5.68;;;1.48;;
78877;SDS011;68257;43.514;1.498;2024-01-16T08:05:13;3.20;;;1.10;;
78877;SDS011;68257;43.514;1.498;2024-01-16T08:07:39;2.63;;;1.10;;
78877;SDS011;68257;43.514;1.498;2024-01-16T08:10:08;4.27;;;1.20;;
78877;SDS011;68257;43.514;1.498;2024-01-16T08:12:33;3.35;;;1.20;;
78877;SDS011;68257;43.514;1.498;2024-01-16T08:14:59;3.67;;;1.30;;
78877;SDS011;68257;43.514;1.498;2024-01-16T08:17:24;3.90;;;1.30;;
78877;SDS011;68257;43.514;1.498;2024-01-16T08:19:49;3.45;;;1.30;;
78877;SDS011;68257;43.514;1.498;2024-01-16T08:22:15;3.05;;;1.20;;
78877;SDS011;68257;43.514;1.498;2024-01-16T08:24:40;2.97;;;1.13;;
78877;SDS011;68257;43.514;1.498;2024-01-16T08:27:05;3.80;;;1.40;;
78877;SDS011;68257;43.514;1.498;2024-01-16T08:29:31;4.33;;;1.27;;
78877;SDS011;68257;43.514;1.498;2024-01-16T08:31:56;5.77;;;1.40;;
78877;SDS011;68257;43.514;1.498;2024-01-16T08:34:22;4.93;;;1.40;;
78877;SDS011;68257;43.514;1.498;2024-01-16T08:36:47;4.05;;;1.40;;
78877;SDS011;68257;43.514;1.498;2024-01-16T08:39:13;3.40;;;1.60;;
78877;SDS011;68257;43.514;1.498;2024-01-16T08:41:38;4.27;;;1.40;;
78877;SDS011;68257;43.514;1.498;2024-01-16T08:44:04;4.40;;;1.90;;
78877;SDS011;68257;43.514;1.498;2024-01-16T08:46:29;5.78;;;1.80;;
78877;SDS011;68257;43.514;1.498;2024-01-16T08:48:54;5.57;;;1.65;;
78877;SDS011;68257;43.514;1.498;2024-01-16T08:51:20;5.93;;;1.50;;
78877;SDS011;68257;43.514;1.498;2024-01-16T08:53:45;3.90;;;1.30;;
78877;SDS011;68257;43.514;1.498;2024-01-16T08:56:11;3.67;;;1.30;;
78877;SDS011;68257;43.514;1.498;2024-01-16T08:58:37;5.28;;;1.50;;
78877;SDS011;68257;43.514;1.498;2024-01-16T09:01:03;5.32;;;1.60;;
78877;SDS011;68257;43.514;1.498;2024-01-16T09:03:32;5.57;;;1.80;;
78877;SDS011;68257;43.514;1.498;2024-01-16T09:05:58;6.43;;;1.90;;
78877;SDS011;68257;43.514;1.498;2024-01-16T09:08:25;4.57;;;2.00;;
78877;SDS011;68257;43.514;1.498;2024-01-16T09:10:51;5.57;;;2.10;;
78877;SDS011;68257;43.514;1.498;2024-01-16T09:13:17;6.05;;;2.10;;
78877;SDS011;68257;43.514;1.498;2024-01-16T09:15:42;4.33;;;1.47;;
78877;SDS011;68257;43.514;1.498;2024-01-16T09:18:07;2.93;;;1.50;;
78877;SDS011;68257;43.514;1.498;2024-01-16T09:20:33;4.23;;;1.80;;
78877;SDS011;68257;43.514;1.498;2024-01-16T09:22:58;4.40;;;1.77;;
78877;SDS011;68257;43.514;1.498;2024-01-16T09:25:24;8.00;;;2.10;;
78877;SDS011;68257;43.514;1.498;2024-01-16T09:27:50;4.30;;;1.85;;
78877;SDS011;68257;43.514;1.498;2024-01-16T09:30:16;3.45;;;1.60;;
78877;SDS011;68257;43.514;1.498;2024-01-16T09:32:41;7.73;;;2.50;;
78877;SDS011;68257;43.514;1.498;2024-01-16T09:35:07;8.90;;;3.15;;
78877;SDS011;68257;43.514;1.498;2024-01-16T09:37:34;4.95;;;2.15;;
78877;SDS011;68257;43.514;1.498;2024-01-16T09:40:00;5.93;;;2.03;;
78877;SDS011;68257;43.514;1.498;2024-01-16T09:42:25;4.90;;;2.07;;
78877;SDS011;68257;43.514;1.498;2024-01-16T09:44:51;5.23;;;1.90;;
78877;SDS011;68257;43.514;1.498;2024-01-16T09:47:17;5.03;;;2.00;;
78877;SDS011;68257;43.514;1.498;2024-01-16T09:49:43;4.88;;;2.10;;
78877;SDS011;68257;43.514;1.498;2024-01-16T09:52:10;4.73;;;2.30;;
78877;SDS011;68257;43.514;1.498;2024-01-16T09:54:36;4.82;;;1.77;;
78877;SDS011;68257;43.514;1.498;2024-01-16T09:57:01;4.10;;;1.60;;
78877;SDS011;68257;43.514;1.498;2024-01-16T09:59:28;5.32;;;2.22;;
78877;SDS011;68257;43.514;1.498;2024-01-16T10:01:54;5.38;;;1.92;;
78877;SDS011;68257;43.514;1.498;2024-01-16T10:04:22;6.97;;;2.20;;
78877;SDS011;68257;43.514;1.498;2024-01-16T10:06:47;7.80;;;3.08;;
78877;SDS011;68257;43.514;1.498;2024-01-16T10:09:13;5.37;;;2.10;;
78877;SDS011;68257;43.514;1.498;2024-01-16T10:11:38;7.00;;;2.40;;
78877;SDS011;68257;43.514;1.498;2024-01-16T10:14:04;4.20;;;2.05;;
78877;SDS011;68257;43.514;1.498;2024-01-16T10:17:04;8.60;;;1.77;;
78877;SDS011;68257;43.514;1.498;2024-01-16T10:19:30;4.28;;;2.08;;
78877;SDS011;68257;43.514;1.498;2024-01-16T10:22:03;3.45;;;1.90;;
78877;SDS011;68257;43.514;1.498;2024-01-16T10:24:31;3.22;;;1.70;;
78877;SDS011;68257;43.514;1.498;2024-01-16T10:27:00;5.60;;;2.15;;
78877;SDS011;68257;43.514;1.498;2024-01-16T10:29:28;4.93;;;2.50;;
78877;SDS011;68257;43.514;1.498;2024-01-16T10:31:53;5.28;;;2.13;;
78877;SDS011;68257;43.514;1.498;2024-01-16T10:34:19;5.30;;;2.60;;
78877;SDS011;68257;43.514;1.498;2024-01-16T10:36:46;4.00;;;1.63;;
78877;SDS011;68257;43.514;1.498;2024-01-16T10:39:11;4.47;;;2.20;;
78877;SDS011;68257;43.514;1.498;2024-01-16T10:41:38;5.80;;;1.92;;
78877;SDS011;68257;43.514;1.498;2024-01-16T10:44:04;5.43;;;2.20;;
78877;SDS011;68257;43.514;1.498;2024-01-16T10:46:32;5.50;;;2.55;;
78877;SDS011;68257;43.514;1.498;2024-01-16T10:49:01;6.13;;;3.10;;
78877;SDS011;68257;43.514;1.498;2024-01-16T10:51:28;6.80;;;4.30;;
78877;SDS011;68257;43.514;1.498;2024-01-16T10:53:58;7.45;;;4.82;;
78877;SDS011;68257;43.514;1.498;2024-01-16T10:56:24;10.30;;;4.70;;
78877;SDS011;68257;43.514;1.498;2024-01-16T10:58:57;7.57;;;4.70;;
78877;SDS011;68257;43.514;1.498;2024-01-16T11:01:31;7.85;;;4.97;;
78877;SDS011;68257;43.514;1.498;2024-01-16T11:03:56;8.37;;;4.07;;
78877;SDS011;68257;43.514;1.498;2024-01-16T11:06:24;5.47;;;3.30;;
78877;SDS011;68257;43.514;1.498;2024-01-16T11:08:49;6.93;;;4.25;;
78877;SDS011;68257;43.514;1.498;2024-01-16T11:11:16;5.88;;;2.50;;
78877;SDS011;68257;43.514;1.498;2024-01-16T11:13:42;4.20;;;2.22;;
78877;SDS011;68257;43.514;1.498;2024-01-16T11:16:11;5.50;;;1.88;;
78877;SDS011;68257;43.514;1.498;2024-01-16T11:18:37;4.50;;;1.80;;
78877;SDS011;68257;43.514;1.498;2024-01-16T11:21:07;5.13;;;1.80;;
78877;SDS011;68257;43.514;1.498;2024-01-16T11:23:34;4.28;;;1.63;;
78877;SDS011;68257;43.514;1.498;2024-01-16T11:26:02;3.72;;;1.60;;
78877;SDS011;68257;43.514;1.498;2024-01-16T11:28:57;3.83;;;1.70;;
78877;SDS011;68257;43.514;1.498;2024-01-16T11:31:30;4.47;;;1.90;;
78877;SDS011;68257;43.514;1.498;2024-01-16T11:33:57;3.72;;;1.80;;
78877;SDS011;68257;43.514;1.498;2024-01-16T11:39:09;6.65;;;1.83;;
78877;SDS011;68257;43.514;1.498;2024-01-16T11:41:55;5.20;;;1.60;;
78877;SDS011;68257;43.514;1.498;2024-01-16T11:44:40;5.55;;;1.48;;
78877;SDS011;68257;43.514;1.498;2024-01-16T11:47:19;3.35;;;1.50;;
78877;SDS011;68257;43.514;1.498;2024-01-16T11:49:45;3.88;;;1.30;;
78877;SDS011;68257;43.514;1.498;2024-01-16T11:52:11;4.40;;;1.60;;
78877;SDS011;68257;43.514;1.498;2024-01-16T11:54:37;5.73;;;1.70;;
78877;SDS011;68257;43.514;1.498;2024-01-16T12:02:49;4.40;;;1.95;;
78877;SDS011;68257;43.514;1.498;2024-01-16T12:05:18;4.13;;;1.80;;
78877;SDS011;68257;43.514;1.498;2024-01-16T12:10:17;3.63;;;1.88;;
78877;SDS011;68257;43.514;1.498;2024-01-16T12:12:47;6.13;;;2.22;;
78877;SDS011;68257;43.514;1.498;2024-01-16T12:15:22;5.47;;;2.17;;
78877;SDS011;68257;43.514;1.498;2024-01-16T12:17:57;5.20;;;2.00;;
78877;SDS011;68257;43.514;1.498;2024-01-16T12:20:25;5.07;;;1.90;;
78877;SDS011;68257;43.514;1.498;2024-01-16T12:23:00;6.20;;;1.60;;
78877;SDS011;68257;43.514;1.498;2024-01-16T12:25:25;5.07;;;1.60;;
78877;SDS011;68257;43.514;1.498;2024-01-16T12:30:27;6.50;;;1.90;;
78877;SDS011;68257;43.514;1.498;2024-01-16T12:33:15;5.40;;;2.50;;
78877;SDS011;68257;43.514;1.498;2024-01-16T12:35:40;5.60;;;2.10;;
78877;SDS011;68257;43.514;1.498;2024-01-16T12:38:10;4.80;;;1.92;;
78877;SDS011;68257;43.514;1.498;2024-01-16T12:40:37;4.97;;;2.00;;
78877;SDS011;68257;43.514;1.498;2024-01-16T12:43:08;4.80;;;1.80;;
78877;SDS011;68257;43.514;1.498;2024-01-16T12:45:37;4.90;;;1.77;;
78877;SDS011;68257;43.514;1.498;2024-01-16T12:48:02;5.60;;;1.60;;
78877;SDS011;68257;43.514;1.498;2024-01-16T12:50:30;4.15;;;1.80;;
78877;SDS011;68257;43.514;1.498;2024-01-16T12:53:11;4.72;;;1.63;;
78877;SDS011;68257;43.514;1.498;2024-01-16T12:55:37;3.83;;;1.67;;
78877;SDS011;68257;43.514;1.498;2024-01-16T13:00:42;5.05;;;1.70;;
78877;SDS011;68257;43.514;1.498;2024-01-16T13:03:14;5.32;;;1.70;;
78877;SDS011;68257;43.514;1.498;2024-01-16T13:05:41;4.07;;;1.70;;
78877;SDS011;68257;43.514;1.498;2024-01-16T13:08:07;4.45;;;1.77;;
78877;SDS011;68257;43.514;1.498;2024-01-16T13:10:32;4.97;;;1.73;;
78877;SDS011;68257;43.514;1.498;2024-01-16T13:13:16;4.28;;;1.65;;
78877;SDS011;68257;43.514;1.498;2024-01-16T13:15:43;3.30;;;1.67;;
78877;SDS011;68257;43.514;1.498;2024-01-16T13:18:22;4.28;;;1.58;;
78877;SDS011;68257;43.514;1.498;2024-01-16T13:20:52;3.95;;;1.50;;
78877;SDS011;68257;43.514;1.498;2024-01-16T13:23:18;3.92;;;1.60;;
78877;SDS011;68257;43.514;1.498;2024-01-16T13:25:45;4.13;;;1.80;;
78877;SDS011;68257;43.514;1.498;2024-01-16T13:28:12;5.45;;;1.60;;
78877;SDS011;68257;43.514;1.498;2024-01-16T13:30:39;3.97;;;1.90;;
78877;SDS011;68257;43.514;1.498;2024-01-16T13:33:04;5.50;;;2.00;;
78877;SDS011;68257;43.514;1.498;2024-01-16T13:35:30;5.70;;;1.60;;
78877;SDS011;68257;43.514;1.498;2024-01-16T13:37:56;3.80;;;1.33;;
78877;SDS011;68257;43.514;1.498;2024-01-16T13:40:21;6.20;;;1.87;;
78877;SDS011;68257;43.514;1.498;2024-01-16T13:42:47;4.70;;;1.60;;
78877;SDS011;68257;43.514;1.498;2024-01-16T13:45:13;2.92;;;1.38;;
78877;SDS011;68257;43.514;1.498;2024-01-16T13:47:39;3.65;;;1.30;;
78877;SDS011;68257;43.514;1.498;2024-01-16T13:50:06;4.10;;;1.33;;
78877;SDS011;68257;43.514;1.498;2024-01-16T13:52:32;5.07;;;1.40;;
78877;SDS011;68257;43.514;1.498;2024-01-16T13:54:58;4.13;;;1.30;;
78877;SDS011;68257;43.514;1.498;2024-01-16T13:57:26;3.70;;;1.50;;
78877;SDS011;68257;43.514;1.498;2024-01-16T13:59:51;5.47;;;1.57;;
78877;SDS011;68257;43.514;1.498;2024-01-16T14:02:17;4.60;;;2.00;;
78877;SDS011;68257;43.514;1.498;2024-01-16T14:04:42;5.37;;;1.80;;
78877;SDS011;68257;43.514;1.498;2024-01-16T14:07:08;5.80;;;1.63;;
78877;SDS011;68257;43.514;1.498;2024-01-16T14:09:34;3.23;;;1.30;;
78877;SDS011;68257;43.514;1.498;2024-01-16T14:12:01;4.85;;;1.70;;
78877;SDS011;68257;43.514;1.498;2024-01-16T14:14:26;5.90;;;1.90;;
78877;SDS011;68257;43.514;1.498;2024-01-16T14:16:52;8.68;;;3.90;;
78877;SDS011;68257;43.514;1.498;2024-01-16T14:19:19;5.80;;;2.30;;
78877;SDS011;68257;43.514;1.498;2024-01-16T14:21:44;8.68;;;4.50;;
78877;SDS011;68257;43.514;1.498;2024-01-16T14:24:12;7.10;;;4.93;;
78877;SDS011;68257;43.514;1.498;2024-01-16T14:26:37;4.80;;;1.90;;
78877;SDS011;68257;43.514;1.498;2024-01-16T14:29:02;4.00;;;1.50;;
78877;SDS011;68257;43.514;1.498;2024-01-16T14:31:28;4.10;;;1.60;;
78877;SDS011;68257;43.514;1.498;2024-01-16T14:33:53;2.95;;;1.50;;
78877;SDS011;68257;43.514;1.498;2024-01-16T14:36:18;3.13;;;1.45;;
78877;SDS011;68257;43.514;1.498;2024-01-16T14:38:44;4.07;;;1.50;;
78877;SDS011;68257;43.514;1.498;2024-01-16T14:41:10;3.95;;;1.25;;
78877;SDS011;68257;43.514;1.498;2024-01-16T14:43:37;4.60;;;1.40;;
78877;SDS011;68257;43.514;1.498;2024-01-16T14:46:03;4.32;;;1.60;;
78877;SDS011;68257;43.514;1.498;2024-01-16T14:48:28;4.15;;;1.70;;
78877;SDS011;68257;43.514;1.498;2024-01-16T14:50:55;5.10;;;1.70;;
78877;SDS011;68257;43.514;1.498;2024-01-16T14:53:20;5.18;;;1.75;;
78877;SDS011;68257;43.514;1.498;2024-01-16T14:55:46;3.17;;;1.40;;
78877;SDS011;68257;43.514;1.498;2024-01-16T14:58:12;3.72;;;1.50;;
78877;SDS011;68257;43.514;1.498;2024-01-16T15:00:37;3.63;;;1.75;;
78877;SDS011;68257;43.514;1.498;2024-01-16T15:03:02;5.83;;;3.23;;